sensor_id;sensor_type;location;lat;lon;timestamp;temperature;humidity
69436;SHT31;56625;54.322;18.582;2023-06-01T00:02:21;13.56;66.81
69436;SHT31;56625;54.322;18.582;2023-06-01T00:04:49;13.53;67.66
69436;SHT31;56625;54.322;18.582;2023-06-01T00:07:17;13.49;67.83
69436;SHT31;56625;54.322;18.582;2023-06-01T00:09:46;13.46;68.10
69436;SHT31;56625;54.322;18.582;2023-06-01T00:12:14;13.38;68.08
69436;SHT31;56625;54.322;18.582;2023-06-01T00:14:42;13.31;68.11
69436;SHT31;56625;54.322;18.582;2023-06-01T00:17:10;13.26;68.36
69436;SHT31;56625;54.322;18.582;2023-06-01T00:19:38;13.24;68.36
69436;SHT31;56625;54.322;18.582;2023-06-01T00:22:06;13.19;68.43
69436;SHT31;56625;54.322;18.582;2023-06-01T00:24:37;13.10;68.47
69436;SHT31;56625;54.322;18.582;2023-06-01T00:27:05;13.07;68.84
69436;SHT31;56625;54.322;18.582;2023-06-01T00:29:34;13.07;69.03
69436;SHT31;56625;54.322;18.582;2023-06-01T00:32:02;13.06;69.14
69436;SHT31;56625;54.322;18.582;2023-06-01T00:34:30;13.05;69.58
69436;SHT31;56625;54.322;18.582;2023-06-01T00:36:58;13.05;69.73
69436;SHT31;56625;54.322;18.582;2023-06-01T00:39:26;13.04;69.91
69436;SHT31;56625;54.322;18.582;2023-06-01T00:41:54;13.02;70.05
69436;SHT31;56625;54.322;18.582;2023-06-01T00:44:25;13.01;70.17
69436;SHT31;56625;54.322;18.582;2023-06-01T00:46:53;12.99;70.77
69436;SHT31;56625;54.322;18.582;2023-06-01T00:49:21;12.96;70.79
69436;SHT31;56625;54.322;18.582;2023-06-01T00:51:50;12.93;70.94
69436;SHT31;56625;54.322;18.582;2023-06-01T00:54:18;12.89;71.12
69436;SHT31;56625;54.322;18.582;2023-06-01T00:56:47;12.84;70.97
69436;SHT31;56625;54.322;18.582;2023-06-01T00:59:15;12.80;71.14
69436;SHT31;56625;54.322;18.582;2023-06-01T01:01:43;12.77;70.98
69436;SHT31;56625;54.322;18.582;2023-06-01T01:04:11;12.73;70.97
69436;SHT31;56625;54.322;18.582;2023-06-01T01:09:29;12.64;71.59
69436;SHT31;56625;54.322;18.582;2023-06-01T01:12:09;12.64;71.87
69436;SHT31;56625;54.322;18.582;2023-06-01T01:15:26;12.63;71.71
69436;SHT31;56625;54.322;18.582;2023-06-01T01:18:07;12.60;71.71
69436;SHT31;56625;54.322;18.582;2023-06-01T01:20:48;12.60;71.84
69436;SHT31;56625;54.322;18.582;2023-06-01T01:26:34;12.50;72.00
69436;SHT31;56625;54.322;18.582;2023-06-01T01:29:22;12.44;72.18
69436;SHT31;56625;54.322;18.582;2023-06-01T01:31:53;12.40;72.44
69436;SHT31;56625;54.322;18.582;2023-06-01T01:34:23;12.40;72.60
69436;SHT31;56625;54.322;18.582;2023-06-01T01:36:55;12.42;72.89
69436;SHT31;56625;54.322;18.582;2023-06-01T01:39:23;12.42;72.74
69436;SHT31;56625;54.322;18.582;2023-06-01T01:41:51;12.42;72.92
69436;SHT31;56625;54.322;18.582;2023-06-01T01:44:19;12.43;72.78
69436;SHT31;56625;54.322;18.582;2023-06-01T01:46:57;12.43;72.67
69436;SHT31;56625;54.322;18.582;2023-06-01T01:49:41;12.41;72.66
69436;SHT31;56625;54.322;18.582;2023-06-01T01:52:15;12.40;72.79
69436;SHT31;56625;54.322;18.582;2023-06-01T01:54:53;12.37;72.80
69436;SHT31;56625;54.322;18.582;2023-06-01T01:57:23;12.33;72.79
69436;SHT31;56625;54.322;18.582;2023-06-01T01:59:53;12.31;73.17
69436;SHT31;56625;54.322;18.582;2023-06-01T02:02:23;12.30;73.34
69436;SHT31;56625;54.322;18.582;2023-06-01T02:04:52;12.27;73.22
69436;SHT31;56625;54.322;18.582;2023-06-01T02:07:19;12.23;73.23
69436;SHT31;56625;54.322;18.582;2023-06-01T02:09:48;12.20;73.26
69436;SHT31;56625;54.322;18.582;2023-06-01T02:12:16;12.14;73.20
69436;SHT31;56625;54.322;18.582;2023-06-01T02:14:44;12.09;73.32
69436;SHT31;56625;54.322;18.582;2023-06-01T02:17:12;12.03;73.37
69436;SHT31;56625;54.322;18.582;2023-06-01T02:19:43;11.97;73.64
69436;SHT31;56625;54.322;18.582;2023-06-01T02:22:11;11.97;74.01
69436;SHT31;56625;54.322;18.582;2023-06-01T02:24:39;11.97;74.00
69436;SHT31;56625;54.322;18.582;2023-06-01T02:27:07;11.95;73.98
69436;SHT31;56625;54.322;18.582;2023-06-01T02:29:35;11.88;73.96
69436;SHT31;56625;54.322;18.582;2023-06-01T02:32:03;11.87;74.22
69436;SHT31;56625;54.322;18.582;2023-06-01T02:34:32;11.85;74.35
69436;SHT31;56625;54.322;18.582;2023-06-01T02:36:59;11.85;74.67
69436;SHT31;56625;54.322;18.582;2023-06-01T02:39:27;11.85;75.11
69436;SHT31;56625;54.322;18.582;2023-06-01T02:41:55;11.81;74.72
69436;SHT31;56625;54.322;18.582;2023-06-01T02:44:23;11.75;74.67
69436;SHT31;56625;54.322;18.582;2023-06-01T02:46:51;11.74;74.92
69436;SHT31;56625;54.322;18.582;2023-06-01T02:49:19;11.76;75.03
69436;SHT31;56625;54.322;18.582;2023-06-01T02:51:47;11.79;75.03
69436;SHT31;56625;54.322;18.582;2023-06-01T02:54:15;11.84;75.03
69436;SHT31;56625;54.322;18.582;2023-06-01T02:56:43;11.81;75.03
69436;SHT31;56625;54.322;18.582;2023-06-01T02:59:11;11.80;75.36
69436;SHT31;56625;54.322;18.582;2023-06-01T03:01:39;11.88;75.22
69436;SHT31;56625;54.322;18.582;2023-06-01T03:04:08;12.08;75.16
69436;SHT31;56625;54.322;18.582;2023-06-01T03:06:36;12.27;74.77
69436;SHT31;56625;54.322;18.582;2023-06-01T03:09:05;12.42;74.80
69436;SHT31;56625;54.322;18.582;2023-06-01T03:11:41;12.57;74.55
69436;SHT31;56625;54.322;18.582;2023-06-01T03:14:10;12.70;74.42
69436;SHT31;56625;54.322;18.582;2023-06-01T03:16:38;12.91;74.19
69436;SHT31;56625;54.322;18.582;2023-06-01T03:19:06;13.17;73.79
69436;SHT31;56625;54.322;18.582;2023-06-01T03:21:33;13.46;73.10
69436;SHT31;56625;54.322;18.582;2023-06-01T03:24:01;13.73;72.42
69436;SHT31;56625;54.322;18.582;2023-06-01T03:26:33;14.04;72.08
69436;SHT31;56625;54.322;18.582;2023-06-01T03:29:01;14.49;71.58
69436;SHT31;56625;54.322;18.582;2023-06-01T03:31:29;14.97;70.79
69436;SHT31;56625;54.322;18.582;2023-06-01T03:33:58;15.42;69.60
69436;SHT31;56625;54.322;18.582;2023-06-01T03:36:26;15.88;68.71
69436;SHT31;56625;54.322;18.582;2023-06-01T03:38:55;16.20;67.37
69436;SHT31;56625;54.322;18.582;2023-06-01T03:41:23;16.46;66.85
69436;SHT31;56625;54.322;18.582;2023-06-01T03:43:51;16.65;65.90
69436;SHT31;56625;54.322;18.582;2023-06-01T03:46:19;16.77;65.02
69436;SHT31;56625;54.322;18.582;2023-06-01T03:48:47;16.73;65.03
69436;SHT31;56625;54.322;18.582;2023-06-01T03:51:15;16.78;64.86
69436;SHT31;56625;54.322;18.582;2023-06-01T03:53:43;16.80;65.10
69436;SHT31;56625;54.322;18.582;2023-06-01T03:56:11;17.00;64.35
69436;SHT31;56625;54.322;18.582;2023-06-01T03:58:39;16.99;64.29
69436;SHT31;56625;54.322;18.582;2023-06-01T04:01:07;17.03;64.20
69436;SHT31;56625;54.322;18.582;2023-06-01T04:03:35;17.15;64.36
69436;SHT31;56625;54.322;18.582;2023-06-01T04:06:04;17.32;63.72
69436;SHT31;56625;54.322;18.582;2023-06-01T04:08:39;17.22;63.41
69436;SHT31;56625;54.322;18.582;2023-06-01T04:11:15;17.07;63.97
69436;SHT31;56625;54.322;18.582;2023-06-01T04:13:44;16.96;64.29
69436;SHT31;56625;54.322;18.582;2023-06-01T04:16:12;16.83;64.68
69436;SHT31;56625;54.322;18.582;2023-06-01T04:18:40;16.87;64.78
69436;SHT31;56625;54.322;18.582;2023-06-01T04:21:09;16.90;64.80
69436;SHT31;56625;54.322;18.582;2023-06-01T04:23:37;17.00;64.66
69436;SHT31;56625;54.322;18.582;2023-06-01T04:26:05;16.93;64.69
69436;SHT31;56625;54.322;18.582;2023-06-01T04:28:33;16.86;64.97
69436;SHT31;56625;54.322;18.582;2023-06-01T04:31:02;16.91;64.90
69436;SHT31;56625;54.322;18.582;2023-06-01T04:33:30;16.83;64.93
69436;SHT31;56625;54.322;18.582;2023-06-01T04:35:58;16.63;65.54
69436;SHT31;56625;54.322;18.582;2023-06-01T04:38:26;16.48;66.10
69436;SHT31;56625;54.322;18.582;2023-06-01T04:40:54;16.35;66.40
69436;SHT31;56625;54.322;18.582;2023-06-01T04:43:22;16.29;66.65
69436;SHT31;56625;54.322;18.582;2023-06-01T04:45:51;16.32;66.74
69436;SHT31;56625;54.322;18.582;2023-06-01T04:48:19;16.45;66.57
69436;SHT31;56625;54.322;18.582;2023-06-01T04:50:47;16.59;66.18
69436;SHT31;56625;54.322;18.582;2023-06-01T04:53:16;16.60;65.64
69436;SHT31;56625;54.322;18.582;2023-06-01T04:55:43;16.52;65.43
69436;SHT31;56625;54.322;18.582;2023-06-01T04:58:12;16.49;65.54
69436;SHT31;56625;54.322;18.582;2023-06-01T05:00:40;16.50;65.44
69436;SHT31;56625;54.322;18.582;2023-06-01T05:03:07;16.47;65.50
69436;SHT31;56625;54.322;18.582;2023-06-01T05:05:36;16.50;65.47
69436;SHT31;56625;54.322;18.582;2023-06-01T05:08:07;16.61;65.20
69436;SHT31;56625;54.322;18.582;2023-06-01T05:10:35;16.61;64.27
69436;SHT31;56625;54.322;18.582;2023-06-01T05:13:03;16.55;64.38
69436;SHT31;56625;54.322;18.582;2023-06-01T05:15:31;16.54;64.32
69436;SHT31;56625;54.322;18.582;2023-06-01T05:17:59;16.52;64.07
69436;SHT31;56625;54.322;18.582;2023-06-01T05:20:27;16.57;64.17
69436;SHT31;56625;54.322;18.582;2023-06-01T05:22:55;16.62;64.25
69436;SHT31;56625;54.322;18.582;2023-06-01T05:25:23;16.73;64.12
69436;SHT31;56625;54.322;18.582;2023-06-01T05:27:51;16.88;63.91
69436;SHT31;56625;54.322;18.582;2023-06-01T05:30:19;17.04;63.13
69436;SHT31;56625;54.322;18.582;2023-06-01T05:32:46;17.00;62.80
69436;SHT31;56625;54.322;18.582;2023-06-01T05:35:14;17.03;63.04
69436;SHT31;56625;54.322;18.582;2023-06-01T05:37:42;17.09;62.66
69436;SHT31;56625;54.322;18.582;2023-06-01T05:40:13;17.06;62.00
69436;SHT31;56625;54.322;18.582;2023-06-01T05:42:41;17.05;61.92
69436;SHT31;56625;54.322;18.582;2023-06-01T05:45:09;17.09;61.56
69436;SHT31;56625;54.322;18.582;2023-06-01T05:47:37;17.16;61.24
69436;SHT31;56625;54.322;18.582;2023-06-01T05:50:05;17.13;61.15
69436;SHT31;56625;54.322;18.582;2023-06-01T05:52:34;17.18;60.80
69436;SHT31;56625;54.322;18.582;2023-06-01T05:55:02;17.21;60.71
69436;SHT31;56625;54.322;18.582;2023-06-01T05:57:31;17.24;60.58
69436;SHT31;56625;54.322;18.582;2023-06-01T05:59:59;17.26;60.68
69436;SHT31;56625;54.322;18.582;2023-06-01T06:02:27;17.38;60.75
69436;SHT31;56625;54.322;18.582;2023-06-01T06:04:55;17.50;60.15
69436;SHT31;56625;54.322;18.582;2023-06-01T06:07:23;17.55;59.50
69436;SHT31;56625;54.322;18.582;2023-06-01T06:09:51;17.71;60.06
69436;SHT31;56625;54.322;18.582;2023-06-01T06:12:18;17.89;58.57
69436;SHT31;56625;54.322;18.582;2023-06-01T06:14:47;18.04;57.84
69436;SHT31;56625;54.322;18.582;2023-06-01T06:17:16;18.11;56.54
69436;SHT31;56625;54.322;18.582;2023-06-01T06:19:44;17.97;55.97
69436;SHT31;56625;54.322;18.582;2023-06-01T06:22:13;17.83;56.72
69436;SHT31;56625;54.322;18.582;2023-06-01T06:24:41;17.77;57.30
69436;SHT31;56625;54.322;18.582;2023-06-01T06:27:12;17.81;56.42
69436;SHT31;56625;54.322;18.582;2023-06-01T06:29:40;17.79;56.21
69436;SHT31;56625;54.322;18.582;2023-06-01T06:32:08;17.75;56.19
69436;SHT31;56625;54.322;18.582;2023-06-01T06:34:37;17.80;56.46
69436;SHT31;56625;54.322;18.582;2023-06-01T06:37:05;17.83;55.71
69436;SHT31;56625;54.322;18.582;2023-06-01T06:39:33;17.81;56.30
69436;SHT31;56625;54.322;18.582;2023-06-01T06:42:01;17.94;56.68
69436;SHT31;56625;54.322;18.582;2023-06-01T06:44:30;18.12;56.05
69436;SHT31;56625;54.322;18.582;2023-06-01T06:46:58;18.27;56.19
69436;SHT31;56625;54.322;18.582;2023-06-01T06:49:29;18.39;55.00
69436;SHT31;56625;54.322;18.582;2023-06-01T06:51:57;18.39;54.91
69436;SHT31;56625;54.322;18.582;2023-06-01T06:54:25;18.45;55.24
69436;SHT31;56625;54.322;18.582;2023-06-01T06:56:53;18.58;55.08
69436;SHT31;56625;54.322;18.582;2023-06-01T06:59:21;18.80;54.65
69436;SHT31;56625;54.322;18.582;2023-06-01T07:01:49;18.96;54.11
69436;SHT31;56625;54.322;18.582;2023-06-01T07:04:17;19.01;53.28
69436;SHT31;56625;54.322;18.582;2023-06-01T07:06:45;18.93;52.36
69436;SHT31;56625;54.322;18.582;2023-06-01T07:09:13;18.88;52.63
69436;SHT31;56625;54.322;18.582;2023-06-01T07:11:42;18.79;53.19
69436;SHT31;56625;54.322;18.582;2023-06-01T07:14:14;18.78;53.24
69436;SHT31;56625;54.322;18.582;2023-06-01T07:16:42;18.76;53.16
69436;SHT31;56625;54.322;18.582;2023-06-01T07:19:11;18.71;53.47
69436;SHT31;56625;54.322;18.582;2023-06-01T07:21:40;18.79;53.20
69436;SHT31;56625;54.322;18.582;2023-06-01T07:24:08;18.89;53.06
69436;SHT31;56625;54.322;18.582;2023-06-01T07:26:37;18.89;52.57
69436;SHT31;56625;54.322;18.582;2023-06-01T07:29:05;18.86;52.94
69436;SHT31;56625;54.322;18.582;2023-06-01T07:31:34;18.92;52.70
69436;SHT31;56625;54.322;18.582;2023-06-01T07:34:03;19.00;52.71
69436;SHT31;56625;54.322;18.582;2023-06-01T07:36:31;19.19;52.96
69436;SHT31;56625;54.322;18.582;2023-06-01T07:39:05;19.29;52.08
69436;SHT31;56625;54.322;18.582;2023-06-01T07:41:34;19.28;51.98
69436;SHT31;56625;54.322;18.582;2023-06-01T07:44:02;19.36;52.09
69436;SHT31;56625;54.322;18.582;2023-06-01T07:46:30;19.46;51.40
69436;SHT31;56625;54.322;18.582;2023-06-01T07:48:58;19.37;51.41
69436;SHT31;56625;54.322;18.582;2023-06-01T07:51:26;19.39;52.01
69436;SHT31;56625;54.322;18.582;2023-06-01T07:53:54;19.54;51.46
69436;SHT31;56625;54.322;18.582;2023-06-01T07:56:25;19.53;50.79
69436;SHT31;56625;54.322;18.582;2023-06-01T07:58:54;19.43;51.06
69436;SHT31;56625;54.322;18.582;2023-06-01T08:01:22;19.33;51.34
69436;SHT31;56625;54.322;18.582;2023-06-01T08:03:51;19.41;51.75
69436;SHT31;56625;54.322;18.582;2023-06-01T08:06:19;19.50;51.28
69436;SHT31;56625;54.322;18.582;2023-06-01T08:08:51;19.51;51.39
69436;SHT31;56625;54.322;18.582;2023-06-01T08:11:19;19.54;51.38
69436;SHT31;56625;54.322;18.582;2023-06-01T08:13:49;19.59;51.08
69436;SHT31;56625;54.322;18.582;2023-06-01T08:16:18;19.61;51.11
69436;SHT31;56625;54.322;18.582;2023-06-01T08:18:46;19.66;50.72
69436;SHT31;56625;54.322;18.582;2023-06-01T08:21:14;19.66;50.49
69436;SHT31;56625;54.322;18.582;2023-06-01T08:23:42;19.74;49.97
69436;SHT31;56625;54.322;18.582;2023-06-01T08:26:10;19.76;50.05
69436;SHT31;56625;54.322;18.582;2023-06-01T08:28:38;19.81;49.21
69436;SHT31;56625;54.322;18.582;2023-06-01T08:31:06;19.81;49.16
69436;SHT31;56625;54.322;18.582;2023-06-01T08:33:34;19.79;49.71
69436;SHT31;56625;54.322;18.582;2023-06-01T08:36:03;19.91;49.58
69436;SHT31;56625;54.322;18.582;2023-06-01T08:38:31;20.10;49.17
69436;SHT31;56625;54.322;18.582;2023-06-01T08:41:00;20.03;48.93
69436;SHT31;56625;54.322;18.582;2023-06-01T08:43:50;20.01;48.74
69436;SHT31;56625;54.322;18.582;2023-06-01T08:46:33;20.05;48.04
69436;SHT31;56625;54.322;18.582;2023-06-01T08:49:02;20.06;48.23
69436;SHT31;56625;54.322;18.582;2023-06-01T08:51:33;20.01;48.76
69436;SHT31;56625;54.322;18.582;2023-06-01T08:54:05;20.10;48.51
69436;SHT31;56625;54.322;18.582;2023-06-01T08:56:37;20.19;48.33
69436;SHT31;56625;54.322;18.582;2023-06-01T08:59:11;20.30;47.92
69436;SHT31;56625;54.322;18.582;2023-06-01T09:01:41;20.50;48.21
69436;SHT31;56625;54.322;18.582;2023-06-01T09:04:10;20.70;47.85
69436;SHT31;56625;54.322;18.582;2023-06-01T09:06:41;20.79;47.47
69436;SHT31;56625;54.322;18.582;2023-06-01T09:09:11;20.88;46.94
69436;SHT31;56625;54.322;18.582;2023-06-01T09:11:40;20.95;46.49
69436;SHT31;56625;54.322;18.582;2023-06-01T09:14:21;21.15;45.74
69436;SHT31;56625;54.322;18.582;2023-06-01T09:16:51;21.35;45.32
69436;SHT31;56625;54.322;18.582;2023-06-01T09:19:19;21.48;45.01
69436;SHT31;56625;54.322;18.582;2023-06-01T09:21:55;21.55;44.85
69436;SHT31;56625;54.322;18.582;2023-06-01T09:24:26;21.65;44.37
69436;SHT31;56625;54.322;18.582;2023-06-01T09:27:00;21.79;44.26
69436;SHT31;56625;54.322;18.582;2023-06-01T09:29:30;21.97;44.71
69436;SHT31;56625;54.322;18.582;2023-06-01T09:31:59;22.06;44.10
69436;SHT31;56625;54.322;18.582;2023-06-01T09:34:28;22.03;43.75
69436;SHT31;56625;54.322;18.582;2023-06-01T09:37:05;22.06;44.06
69436;SHT31;56625;54.322;18.582;2023-06-01T09:39:34;22.24;43.89
69436;SHT31;56625;54.322;18.582;2023-06-01T09:42:02;22.45;43.96
69436;SHT31;56625;54.322;18.582;2023-06-01T09:44:33;22.56;42.79
69436;SHT31;56625;54.322;18.582;2023-06-01T09:47:10;22.47;43.23
69436;SHT31;56625;54.322;18.582;2023-06-01T09:49:41;22.40;42.41
69436;SHT31;56625;54.322;18.582;2023-06-01T09:52:12;22.34;42.06
69436;SHT31;56625;54.322;18.582;2023-06-01T09:54:47;22.33;42.38
69436;SHT31;56625;54.322;18.582;2023-06-01T09:57:20;22.22;43.47
69436;SHT31;56625;54.322;18.582;2023-06-01T09:59:51;22.24;43.54
69436;SHT31;56625;54.322;18.582;2023-06-01T10:02:20;22.23;43.52
69436;SHT31;56625;54.322;18.582;2023-06-01T10:04:54;22.16;43.00
69436;SHT31;56625;54.322;18.582;2023-06-01T10:07:26;22.14;42.70
69436;SHT31;56625;54.322;18.582;2023-06-01T10:10:01;22.28;42.25
69436;SHT31;56625;54.322;18.582;2023-06-01T10:12:31;22.29;41.91
69436;SHT31;56625;54.322;18.582;2023-06-01T10:15:01;22.47;42.60
69436;SHT31;56625;54.322;18.582;2023-06-01T10:17:51;22.82;42.27
69436;SHT31;56625;54.322;18.582;2023-06-01T10:20:19;22.71;41.69
69436;SHT31;56625;54.322;18.582;2023-06-01T10:22:48;22.42;42.23
69436;SHT31;56625;54.322;18.582;2023-06-01T10:25:17;22.32;42.04
69436;SHT31;56625;54.322;18.582;2023-06-01T10:27:52;22.15;41.87
69436;SHT31;56625;54.322;18.582;2023-06-01T10:30:28;22.07;42.25
69436;SHT31;56625;54.322;18.582;2023-06-01T10:32:58;22.19;42.73
69436;SHT31;56625;54.322;18.582;2023-06-01T10:38:42;22.49;42.69
69436;SHT31;56625;54.322;18.582;2023-06-01T10:40:46;22.68;42.70
69436;SHT31;56625;54.322;18.582;2023-06-01T10:49:02;22.83;42.63
69436;SHT31;56625;54.322;18.582;2023-06-01T10:51:32;22.98;41.23
69436;SHT31;56625;54.322;18.582;2023-06-01T11:02:59;22.81;42.24
69436;SHT31;56625;54.322;18.582;2023-06-01T11:05:36;22.64;42.83
69436;SHT31;56625;54.322;18.582;2023-06-01T11:13:19;22.38;44.45
69436;SHT31;56625;54.322;18.582;2023-06-01T11:16:38;22.52;44.05
69436;SHT31;56625;54.322;18.582;2023-06-01T11:18:53;22.51;44.06
69436;SHT31;56625;54.322;18.582;2023-06-01T11:21:28;22.22;45.01
69436;SHT31;56625;54.322;18.582;2023-06-01T11:24:09;21.94;45.74
69436;SHT31;56625;54.322;18.582;2023-06-01T11:26:43;21.64;46.22
69436;SHT31;56625;54.322;18.582;2023-06-01T11:29:19;21.45;46.73
69436;SHT31;56625;54.322;18.582;2023-06-01T11:31:52;21.48;46.77
69436;SHT31;56625;54.322;18.582;2023-06-01T11:34:33;21.57;47.04
69436;SHT31;56625;54.322;18.582;2023-06-01T11:37:15;21.69;47.00
69436;SHT31;56625;54.322;18.582;2023-06-01T11:39:45;21.76;46.72
69436;SHT31;56625;54.322;18.582;2023-06-01T11:42:15;21.51;47.51
69436;SHT31;56625;54.322;18.582;2023-06-01T11:44:55;21.41;47.82
69436;SHT31;56625;54.322;18.582;2023-06-01T11:47:29;21.46;47.91
69436;SHT31;56625;54.322;18.582;2023-06-01T11:49:58;21.36;47.91
69436;SHT31;56625;54.322;18.582;2023-06-01T11:52:27;21.32;47.92
69436;SHT31;56625;54.322;18.582;2023-06-01T11:55:01;21.30;47.90
69436;SHT31;56625;54.322;18.582;2023-06-01T11:57:30;21.46;47.84
69436;SHT31;56625;54.322;18.582;2023-06-01T11:59:58;21.59;47.62
69436;SHT31;56625;54.322;18.582;2023-06-01T12:02:28;21.50;47.78
69436;SHT31;56625;54.322;18.582;2023-06-01T12:04:58;21.37;47.87
69436;SHT31;56625;54.322;18.582;2023-06-01T12:07:44;21.24;48.21
69436;SHT31;56625;54.322;18.582;2023-06-01T12:10:21;21.10;48.18
69436;SHT31;56625;54.322;18.582;2023-06-01T12:12:50;21.09;47.66
69436;SHT31;56625;54.322;18.582;2023-06-01T12:15:18;21.28;47.56
69436;SHT31;56625;54.322;18.582;2023-06-01T12:17:53;21.46;46.99
69436;SHT31;56625;54.322;18.582;2023-06-01T12:20:27;21.42;47.02
69436;SHT31;56625;54.322;18.582;2023-06-01T12:22:59;21.47;47.45
69436;SHT31;56625;54.322;18.582;2023-06-01T12:25:33;21.45;47.51
69436;SHT31;56625;54.322;18.582;2023-06-01T12:28:03;21.24;47.62
69436;SHT31;56625;54.322;18.582;2023-06-01T12:30:34;21.01;48.36
69436;SHT31;56625;54.322;18.582;2023-06-01T12:33:02;21.05;48.43
69436;SHT31;56625;54.322;18.582;2023-06-01T12:35:32;21.12;48.36
69436;SHT31;56625;54.322;18.582;2023-06-01T12:40:39;21.03;48.31
69436;SHT31;56625;54.322;18.582;2023-06-01T12:43:17;20.69;49.14
69436;SHT31;56625;54.322;18.582;2023-06-01T12:45:47;20.44;49.89
69436;SHT31;56625;54.322;18.582;2023-06-01T12:48:34;20.40;50.61
69436;SHT31;56625;54.322;18.582;2023-06-01T12:51:04;20.37;50.87
69436;SHT31;56625;54.322;18.582;2023-06-01T12:53:33;20.36;51.09
69436;SHT31;56625;54.322;18.582;2023-06-01T12:56:01;20.37;50.92
69436;SHT31;56625;54.322;18.582;2023-06-01T12:58:29;20.34;50.69
69436;SHT31;56625;54.322;18.582;2023-06-01T13:00:57;20.33;50.40
69436;SHT31;56625;54.322;18.582;2023-06-01T13:03:25;20.49;50.26
69436;SHT31;56625;54.322;18.582;2023-06-01T13:05:53;20.52;49.13
69436;SHT31;56625;54.322;18.582;2023-06-01T13:08:21;20.39;49.57
69436;SHT31;56625;54.322;18.582;2023-06-01T13:10:50;20.32;50.72
69436;SHT31;56625;54.322;18.582;2023-06-01T13:13:18;20.31;50.48
69436;SHT31;56625;54.322;18.582;2023-06-01T13:15:46;20.16;50.35
69436;SHT31;56625;54.322;18.582;2023-06-01T13:18:14;20.05;50.58
69436;SHT31;56625;54.322;18.582;2023-06-01T13:20:43;19.97;51.10
69436;SHT31;56625;54.322;18.582;2023-06-01T13:23:11;19.92;51.31
69436;SHT31;56625;54.322;18.582;2023-06-01T13:25:39;19.80;51.79
69436;SHT31;56625;54.322;18.582;2023-06-01T13:28:08;19.80;51.97
69436;SHT31;56625;54.322;18.582;2023-06-01T13:30:36;19.85;51.97
69436;SHT31;56625;54.322;18.582;2023-06-01T13:33:04;19.71;51.11
69436;SHT31;56625;54.322;18.582;2023-06-01T13:35:33;19.54;51.55
69436;SHT31;56625;54.322;18.582;2023-06-01T13:38:03;19.57;51.71
69436;SHT31;56625;54.322;18.582;2023-06-01T13:40:31;19.57;51.54
69436;SHT31;56625;54.322;18.582;2023-06-01T13:43:00;19.57;51.59
69436;SHT31;56625;54.322;18.582;2023-06-01T13:45:29;19.45;51.79
69436;SHT31;56625;54.322;18.582;2023-06-01T13:47:58;19.34;52.34
69436;SHT31;56625;54.322;18.582;2023-06-01T13:50:26;19.26;52.66
69436;SHT31;56625;54.322;18.582;2023-06-01T13:52:54;19.14;53.24
69436;SHT31;56625;54.322;18.582;2023-06-01T13:55:22;19.15;53.02
69436;SHT31;56625;54.322;18.582;2023-06-01T13:57:50;19.00;52.98
69436;SHT31;56625;54.322;18.582;2023-06-01T14:00:18;18.96;53.18
69436;SHT31;56625;54.322;18.582;2023-06-01T14:02:49;19.01;52.98
69436;SHT31;56625;54.322;18.582;2023-06-01T14:05:18;18.98;52.94
69436;SHT31;56625;54.322;18.582;2023-06-01T14:07:58;18.97;53.14
69436;SHT31;56625;54.322;18.582;2023-06-01T14:10:26;18.96;52.89
69436;SHT31;56625;54.322;18.582;2023-06-01T14:12:55;18.83;53.16
69436;SHT31;56625;54.322;18.582;2023-06-01T14:15:23;18.90;53.67
69436;SHT31;56625;54.322;18.582;2023-06-01T14:17:52;18.99;53.58
69436;SHT31;56625;54.322;18.582;2023-06-01T14:20:20;19.04;53.33
69436;SHT31;56625;54.322;18.582;2023-06-01T14:22:49;18.90;53.78
69436;SHT31;56625;54.322;18.582;2023-06-01T14:25:17;18.63;54.14
69436;SHT31;56625;54.322;18.582;2023-06-01T14:27:45;18.35;54.73
69436;SHT31;56625;54.322;18.582;2023-06-01T14:30:14;18.15;55.00
69436;SHT31;56625;54.322;18.582;2023-06-01T14:32:45;18.01;55.14
69436;SHT31;56625;54.322;18.582;2023-06-01T14:35:14;17.90;55.29
69436;SHT31;56625;54.322;18.582;2023-06-01T14:37:43;17.80;55.61
69436;SHT31;56625;54.322;18.582;2023-06-01T14:40:16;17.80;55.79
69436;SHT31;56625;54.322;18.582;2023-06-01T14:42:45;17.91;55.86
69436;SHT31;56625;54.322;18.582;2023-06-01T14:45:13;18.02;55.22
69436;SHT31;56625;54.322;18.582;2023-06-01T14:47:42;18.02;55.04
69436;SHT31;56625;54.322;18.582;2023-06-01T14:50:10;18.00;55.25
69436;SHT31;56625;54.322;18.582;2023-06-01T14:52:38;18.04;55.28
69436;SHT31;56625;54.322;18.582;2023-06-01T14:55:07;18.02;55.31
69436;SHT31;56625;54.322;18.582;2023-06-01T14:57:35;18.00;55.10
69436;SHT31;56625;54.322;18.582;2023-06-01T15:00:03;18.07;55.16
69436;SHT31;56625;54.322;18.582;2023-06-01T15:02:32;18.17;54.55
69436;SHT31;56625;54.322;18.582;2023-06-01T15:05:01;18.10;54.22
69436;SHT31;56625;54.322;18.582;2023-06-01T15:07:29;18.09;54.51
69436;SHT31;56625;54.322;18.582;2023-06-01T15:09:57;18.01;54.48
69436;SHT31;56625;54.322;18.582;2023-06-01T15:12:25;17.92;54.90
69436;SHT31;56625;54.322;18.582;2023-06-01T15:14:53;18.00;54.98
69436;SHT31;56625;54.322;18.582;2023-06-01T15:17:21;18.07;54.77
69436;SHT31;56625;54.322;18.582;2023-06-01T15:19:50;18.01;54.60
69436;SHT31;56625;54.322;18.582;2023-06-01T15:22:18;17.93;54.81
69436;SHT31;56625;54.322;18.582;2023-06-01T15:24:46;17.92;55.00
69436;SHT31;56625;54.322;18.582;2023-06-01T15:27:14;17.80;55.14
69436;SHT31;56625;54.322;18.582;2023-06-01T15:29:41;17.80;55.19
69436;SHT31;56625;54.322;18.582;2023-06-01T15:32:09;17.90;55.03
69436;SHT31;56625;54.322;18.582;2023-06-01T15:34:37;17.92;54.74
69436;SHT31;56625;54.322;18.582;2023-06-01T15:37:10;17.78;54.95
69436;SHT31;56625;54.322;18.582;2023-06-01T15:39:40;17.66;55.29
69436;SHT31;56625;54.322;18.582;2023-06-01T15:42:09;17.57;55.59
69436;SHT31;56625;54.322;18.582;2023-06-01T15:44:41;17.50;55.87
69436;SHT31;56625;54.322;18.582;2023-06-01T15:47:11;17.47;56.17
69436;SHT31;56625;54.322;18.582;2023-06-01T15:49:39;17.49;56.26
69436;SHT31;56625;54.322;18.582;2023-06-01T15:52:08;17.54;56.27
69436;SHT31;56625;54.322;18.582;2023-06-01T15:54:37;17.63;56.10
69436;SHT31;56625;54.322;18.582;2023-06-01T15:57:06;17.64;55.91
69436;SHT31;56625;54.322;18.582;2023-06-01T15:59:35;17.68;55.81
69436;SHT31;56625;54.322;18.582;2023-06-01T16:02:03;17.78;55.78
69436;SHT31;56625;54.322;18.582;2023-06-01T16:04:32;17.90;55.33